createdAt,value
2018-07-06T00:00:33.817Z,60.44
2018-07-06T00:03:14.155Z,59.81
2018-07-06T00:05:54.626Z,58.46
2018-07-06T00:08:35.106Z,58.19
2018-07-06T00:11:15.527Z,58.33
2018-07-06T00:13:56.018Z,57.84
2018-07-06T00:16:36.417Z,59.17
2018-07-06T00:19:16.818Z,58.65
2018-07-06T00:21:57.147Z,57.42
2018-07-06T00:24:37.500Z,57.12
2018-07-06T00:27:17.951Z,58.32
2018-07-06T00:29:58.411Z,56.93
2018-07-06T00:32:38.806Z,57.40
2018-07-06T00:35:19.207Z,58.19
2018-07-06T00:37:59.660Z,57.76
2018-07-06T00:40:40.123Z,58.58
2018-07-06T00:43:20.550Z,57.70
2018-07-06T00:46:00.914Z,56.55
2018-07-06T00:48:42.302Z,55.81
2018-07-06T00:51:22.775Z,55.92
2018-07-06T00:54:03.094Z,56.63
2018-07-06T00:56:43.402Z,55.27
2018-07-06T00:59:23.952Z,55.88
2018-07-06T01:02:04.407Z,55.94
2018-07-06T01:04:44.827Z,56.15
2018-07-06T01:07:25.207Z,57.60
2018-07-06T01:10:05.569Z,58.09
2018-07-06T01:12:51.105Z,56.59
2018-07-06T01:15:35.423Z,57.34
2018-07-06T01:18:16.803Z,56.98
2018-07-06T01:20:57.304Z,58.35
2018-07-06T01:23:37.684Z,61.02
2018-07-06T01:26:18.572Z,58.80
2018-07-06T01:28:59.663Z,58.75
2018-07-06T01:31:40.012Z,57.67
2018-07-06T01:34:20.573Z,57.54
2018-07-06T01:37:01.073Z,58.06
2018-07-06T01:39:41.489Z,58.12
2018-07-06T01:42:21.978Z,58.32
2018-07-06T01:45:02.239Z,58.33
2018-07-06T01:47:42.653Z,59.26
2018-07-06T01:50:22.960Z,58.07
2018-07-06T01:53:03.306Z,59.12
2018-07-06T01:55:43.757Z,57.91
2018-07-06T01:58:24.156Z,60.02
2018-07-06T02:01:08.601Z,60.72
2018-07-06T02:03:49.224Z,60.67
2018-07-06T02:06:29.585Z,59.80
2018-07-06T02:09:10.010Z,59.50
2018-07-06T02:11:50.523Z,59.59
2018-07-06T02:14:31.111Z,59.24
2018-07-06T02:17:11.329Z,59.32
2018-07-06T02:19:51.728Z,58.06
2018-07-06T02:22:32.090Z,59.13
2018-07-06T02:25:12.351Z,58.31
2018-07-06T02:27:52.615Z,58.22
2018-07-06T02:30:33.167Z,57.81
2018-07-06T02:33:13.441Z,59.48
2018-07-06T02:35:53.687Z,60.90
2018-07-06T02:38:34.078Z,60.98
2018-07-06T02:41:14.590Z,61.07
2018-07-06T02:43:54.930Z,62.13
2018-07-06T02:46:35.439Z,60.58
2018-07-06T02:49:15.907Z,61.06
2018-07-06T02:51:56.406Z,60.34
2018-07-06T02:54:36.686Z,59.84
2018-07-06T02:57:17.174Z,60.86
2018-07-06T02:59:57.483Z,59.63
2018-07-06T03:02:37.860Z,60.56
2018-07-06T03:05:18.498Z,60.69
2018-07-06T03:07:58.992Z,59.41
2018-07-06T03:10:39.526Z,60.20
2018-07-06T03:13:19.922Z,60.91
2018-07-06T03:16:00.173Z,59.70
2018-07-06T03:18:40.674Z,59.82
2018-07-06T03:21:20.954Z,59.54
2018-07-06T03:24:01.575Z,61.10
2018-07-06T03:26:41.991Z,64.70
2018-07-06T03:29:22.463Z,62.06
2018-07-06T03:32:02.870Z,60.79
2018-07-06T03:34:43.154Z,59.80
2018-07-06T03:37:23.547Z,60.56
2018-07-06T03:40:04.154Z,61.63
2018-07-06T03:42:44.661Z,63.39
2018-07-06T03:45:25.095Z,62.10
2018-07-06T03:48:05.511Z,60.45
2018-07-06T03:50:45.932Z,60.61
2018-07-06T03:53:26.454Z,60.19
2018-07-06T03:56:06.874Z,61.54
2018-07-06T03:58:47.184Z,60.79
2018-07-06T04:01:27.622Z,60.36
2018-07-06T04:04:08.038Z,60.43
2018-07-06T04:06:48.623Z,62.60
2018-07-06T04:09:28.974Z,61.46
2018-07-06T04:12:09.417Z,60.18
2018-07-06T04:14:49.845Z,59.94
2018-07-06T04:17:30.200Z,58.43
2018-07-06T04:20:10.867Z,58.45
2018-07-06T04:22:51.324Z,60.20
2018-07-06T04:25:31.643Z,59.37
2018-07-06T04:28:12.017Z,59.23
2018-07-06T04:30:52.705Z,58.57
2018-07-06T04:33:33.082Z,58.90
2018-07-06T04:36:13.473Z,60.49
2018-07-06T04:38:53.869Z,63.09
2018-07-06T04:41:34.258Z,66.91
2018-07-06T04:44:14.617Z,68.07
2018-07-06T04:46:55.076Z,68.38
2018-07-06T04:49:35.363Z,66.25
2018-07-06T04:52:15.823Z,64.62
2018-07-06T04:54:56.230Z,63.56
2018-07-06T04:57:36.714Z,62.75
2018-07-06T05:00:17.292Z,64.22
2018-07-06T05:02:57.782Z,64.63
2018-07-06T05:05:38.079Z,63.65
2018-07-06T05:08:18.891Z,60.83
2018-07-06T05:10:59.371Z,59.59
2018-07-06T05:13:39.730Z,59.54
2018-07-06T05:16:20.197Z,57.82
2018-07-06T05:19:00.668Z,56.94
2018-07-06T05:21:41.102Z,57.88
2018-07-06T05:24:21.327Z,57.95
2018-07-06T05:27:01.692Z,56.36
2018-07-06T05:29:42.220Z,57.50
2018-07-06T05:32:22.642Z,57.38
2018-07-06T05:35:03.135Z,57.39
2018-07-06T05:37:43.567Z,56.46
2018-07-06T05:40:24.073Z,56.22
2018-07-06T05:43:04.528Z,57.34
2018-07-06T05:45:45.091Z,56.16
2018-07-06T05:48:25.626Z,53.95
2018-07-06T05:51:06.086Z,54.52
2018-07-06T05:53:46.454Z,55.11
2018-07-06T05:56:26.872Z,54.53
2018-07-06T05:59:07.367Z,54.66
2018-07-06T06:01:47.746Z,51.54
2018-07-06T06:04:28.186Z,51.02
2018-07-06T06:07:08.710Z,50.01
2018-07-06T06:09:39.301Z,50.66
2018-07-06T06:12:09.372Z,54.30
2018-07-06T06:14:39.277Z,56.13
2018-07-06T06:17:09.643Z,54.81
2018-07-06T06:19:40.790Z,53.33
2018-07-06T06:22:10.749Z,51.43
2018-07-06T06:24:40.937Z,52.08
2018-07-06T06:27:10.909Z,51.71
2018-07-06T06:29:42.372Z,51.86
2018-07-06T06:32:12.347Z,52.20
2018-07-06T06:34:42.205Z,51.89
2018-07-06T06:37:12.341Z,52.81
2018-07-06T06:39:42.729Z,51.42
2018-07-06T06:42:12.682Z,50.72
2018-07-06T06:44:42.882Z,51.41
2018-07-06T06:47:12.945Z,50.38
2018-07-06T06:49:44.032Z,49.18
2018-07-06T06:52:14.115Z,47.00
2018-07-06T06:54:44.147Z,47.26
2018-07-06T06:57:14.047Z,45.67
2018-07-06T06:59:44.695Z,46.90
2018-07-06T07:03:38.724Z,46.21
2018-07-06T07:06:08.682Z,45.89
2018-07-06T07:08:38.666Z,44.86
2018-07-06T07:11:08.608Z,45.35
2018-07-06T07:13:38.674Z,44.25
2018-07-06T07:16:08.604Z,44.11
2018-07-06T07:18:38.526Z,43.47
2018-07-06T07:21:08.419Z,42.99
2018-07-06T07:23:38.330Z,41.50
2018-07-06T07:26:08.262Z,40.78
2018-07-06T07:28:38.584Z,42.02
2018-07-06T07:31:08.448Z,40.85
2018-07-06T07:33:38.635Z,40.21
2018-07-06T07:36:08.457Z,42.14
2018-07-06T07:38:39.202Z,40.12
2018-07-06T07:41:09.012Z,41.09
2018-07-06T07:43:38.914Z,39.96
2018-07-06T07:46:08.737Z,39.27
2018-07-06T07:48:39.210Z,37.51
2018-07-06T07:51:54.532Z,38.37
2018-07-06T07:54:38.666Z,37.06
2018-07-06T07:57:09.407Z,34.57
2018-07-06T07:59:39.645Z,36.12
2018-07-06T08:02:09.524Z,37.40
2018-07-06T08:04:39.376Z,38.04
2018-07-06T08:07:09.829Z,38.27
2018-07-06T08:09:39.907Z,36.35
2018-07-06T08:12:09.717Z,35.72
2018-07-06T08:14:39.761Z,35.29
2018-07-06T08:17:09.614Z,37.28
2018-07-06T08:19:39.406Z,33.82
2018-07-06T08:22:09.236Z,32.74
2018-07-06T08:24:39.194Z,35.49
2018-07-06T08:27:09.054Z,34.46
2018-07-06T08:29:38.667Z,34.83
2018-07-06T08:32:08.497Z,34.70
2018-07-06T08:34:48.937Z,34.13
2018-07-06T08:37:31.728Z,34.48
2018-07-06T08:40:01.704Z,33.81
2018-07-06T08:42:32.427Z,34.11
2018-07-06T08:45:02.866Z,31.63
2018-07-06T08:47:33.738Z,32.87
2018-07-06T08:50:04.312Z,33.08
2018-07-06T08:52:34.012Z,33.83
2018-07-06T08:55:03.751Z,32.01
2018-07-06T08:57:34.833Z,31.65
2018-07-06T09:00:04.712Z,31.44
2018-07-06T09:02:34.577Z,33.89
2018-07-06T09:05:04.679Z,32.54
2018-07-06T09:07:34.914Z,34.75
2018-07-06T09:10:05.066Z,33.09
2018-07-06T09:12:34.878Z,33.75
2018-07-06T09:15:05.240Z,31.35
2018-07-06T09:17:35.765Z,32.11
2018-07-06T09:20:05.534Z,31.07
2018-07-06T09:22:35.053Z,30.01
2018-07-06T09:25:06.216Z,32.60
2018-07-06T09:27:36.967Z,35.97
2018-07-06T09:30:06.743Z,33.82
2018-07-06T09:32:36.487Z,30.22
2018-07-06T09:35:06.370Z,30.19
2018-07-06T09:37:37.475Z,32.27
2018-07-06T09:40:07.209Z,31.42
2018-07-06T09:42:36.844Z,33.37
2018-07-06T09:45:06.619Z,31.42
2018-07-06T09:47:37.059Z,31.23
2018-07-06T09:50:06.953Z,32.63
2018-07-06T09:52:36.714Z,33.12
2018-07-06T09:55:06.446Z,32.35
2018-07-06T09:57:36.215Z,32.50
2018-07-06T10:00:06.854Z,32.01
2018-07-06T10:02:36.733Z,30.37
2018-07-06T10:05:06.736Z,29.56
2018-07-06T10:07:36.830Z,30.97
2018-07-06T10:10:06.743Z,31.13
2018-07-06T10:12:36.495Z,32.44
2018-07-06T10:15:06.473Z,32.23
2018-07-06T10:17:36.295Z,31.64
2018-07-06T10:20:06.058Z,34.07
2018-07-06T10:22:35.889Z,36.39
2018-07-06T10:25:05.758Z,36.64
2018-07-06T10:27:45.805Z,37.24
2018-07-06T10:30:31.087Z,35.96
2018-07-06T10:33:00.877Z,35.22
2018-07-06T10:35:30.611Z,34.53
2018-07-06T10:38:00.986Z,36.03
2018-07-06T10:40:30.690Z,36.56
2018-07-06T10:43:00.504Z,35.02
2018-07-06T10:45:30.419Z,34.45
2018-07-06T10:48:00.198Z,33.09
2018-07-06T10:50:30.074Z,32.78
2018-07-06T10:52:59.910Z,30.06
2018-07-06T10:55:29.687Z,30.49
2018-07-06T10:57:59.420Z,32.21
2018-07-06T11:00:29.346Z,32.41
2018-07-06T11:02:59.167Z,33.11
2018-07-06T11:05:28.809Z,31.76
2018-07-06T11:07:58.649Z,34.21
2018-07-06T11:10:28.211Z,34.55
2018-07-06T11:12:58.032Z,31.38
2018-07-06T11:15:27.813Z,34.55
2018-07-06T11:17:57.528Z,36.40
2018-07-06T11:20:27.292Z,35.61
2018-07-06T11:22:56.976Z,36.91
2018-07-06T11:25:26.856Z,37.33
2018-07-06T11:27:56.682Z,36.76
2018-07-06T11:30:26.514Z,36.88
2018-07-06T11:32:56.358Z,36.24
2018-07-06T11:35:26.247Z,34.02
2018-07-06T11:37:56.425Z,38.12
2018-07-06T11:40:26.030Z,37.55
2018-07-06T11:42:55.883Z,40.09
2018-07-06T11:45:25.622Z,39.91
2018-07-06T11:47:55.437Z,37.50
2018-07-06T11:50:25.439Z,38.37
2018-07-06T11:52:55.225Z,37.13
2018-07-06T11:55:25.063Z,36.24
2018-07-06T11:57:55.023Z,37.33
2018-07-06T12:00:24.933Z,39.03
2018-07-06T12:02:54.945Z,34.69
2018-07-06T12:05:25.106Z,34.19
2018-07-06T12:07:54.971Z,31.78
2018-07-06T12:10:24.634Z,32.99
2018-07-06T12:12:54.510Z,32.17
2018-07-06T12:15:24.363Z,35.36
2018-07-06T12:17:54.327Z,37.86
2018-07-06T12:20:24.211Z,40.73
2018-07-06T12:22:54.393Z,40.14
2018-07-06T12:25:24.227Z,42.83
2018-07-06T12:27:54.137Z,44.65
2018-07-06T12:30:23.983Z,48.49
2018-07-06T12:32:53.636Z,50.36
2018-07-06T12:35:23.462Z,48.17
2018-07-06T12:37:53.360Z,47.11
2018-07-06T12:40:23.170Z,46.11
2018-07-06T12:42:52.983Z,45.79
2018-07-06T12:45:23.001Z,43.07
2018-07-06T12:47:52.763Z,40.66
2018-07-06T12:50:22.543Z,37.62
2018-07-06T12:52:52.330Z,38.15
2018-07-06T12:55:22.172Z,35.76
2018-07-06T12:57:51.964Z,34.95
2018-07-06T13:00:21.806Z,34.42
2018-07-06T13:02:51.640Z,33.69
2018-07-06T13:05:21.685Z,33.55
2018-07-06T13:07:51.433Z,32.27
2018-07-06T13:10:21.324Z,32.32
2018-07-06T13:12:51.107Z,32.37
2018-07-06T13:15:20.927Z,32.89
2018-07-06T13:17:50.823Z,32.60
2018-07-06T13:20:20.685Z,33.30
2018-07-06T13:22:55.302Z,33.66
2018-07-06T13:25:25.195Z,32.43
2018-07-06T13:27:55.510Z,33.20
2018-07-06T13:30:25.385Z,33.45
2018-07-06T13:32:55.205Z,33.30
2018-07-06T13:35:24.987Z,37.02
2018-07-06T13:37:55.214Z,39.43
2018-07-06T13:40:24.977Z,38.24
2018-07-06T13:42:54.890Z,34.81
2018-07-06T13:45:24.637Z,34.03
2018-07-06T13:47:54.485Z,32.02
2018-07-06T13:50:24.276Z,31.67
2018-07-06T13:52:54.055Z,32.18
2018-07-06T13:55:23.857Z,31.10
2018-07-06T13:57:53.679Z,30.38
2018-07-06T14:00:23.382Z,31.17
2018-07-06T14:02:53.805Z,31.47
2018-07-06T14:05:24.122Z,29.60
2018-07-06T14:07:54.629Z,28.69
2018-07-06T14:10:24.441Z,28.57
2018-07-06T14:12:54.961Z,29.53
2018-07-06T14:15:24.780Z,28.06
2018-07-06T14:17:54.549Z,27.26
2018-07-06T14:20:24.376Z,28.70
2018-07-06T14:22:54.482Z,27.98
2018-07-06T14:25:24.157Z,28.20
2018-07-06T14:27:53.873Z,30.35
2018-07-06T14:30:23.813Z,29.34
2018-07-06T14:32:53.460Z,29.48
2018-07-06T14:35:23.062Z,30.15
2018-07-06T14:37:52.873Z,29.54
2018-07-06T14:40:22.735Z,28.73
2018-07-06T14:42:52.543Z,28.44
2018-07-06T14:45:22.332Z,28.71
2018-07-06T14:47:52.103Z,28.97
2018-07-06T14:50:21.859Z,28.94
2018-07-06T14:52:51.791Z,27.39
2018-07-06T14:55:21.692Z,29.61
2018-07-06T14:57:51.379Z,28.53
2018-07-06T15:00:21.239Z,29.92
2018-07-06T15:02:51.029Z,30.65
2018-07-06T15:05:21.051Z,29.46
2018-07-06T15:07:51.004Z,30.54
2018-07-06T15:10:20.794Z,30.97
2018-07-06T15:14:19.493Z,31.02
2018-07-06T15:16:49.078Z,33.54
2018-07-06T15:19:18.956Z,35.77
2018-07-06T15:21:48.700Z,36.91
2018-07-06T15:24:18.520Z,38.21
2018-07-06T15:26:48.885Z,38.58
2018-07-06T15:29:18.727Z,40.19
2018-07-06T15:31:48.425Z,41.25
2018-07-06T15:34:18.206Z,42.13
2018-07-06T15:36:48.103Z,42.03
2018-07-06T15:39:17.898Z,42.54
2018-07-06T15:41:47.720Z,42.65
2018-07-06T15:44:18.166Z,42.60
2018-07-06T15:46:48.285Z,41.59
2018-07-06T15:49:18.309Z,41.41
2018-07-06T15:51:48.144Z,40.64
2018-07-06T15:54:17.992Z,41.76
2018-07-06T15:56:47.820Z,41.97
2018-07-06T15:59:17.562Z,42.70
2018-07-06T16:01:47.319Z,42.94
2018-07-06T16:04:17.099Z,44.68
2018-07-06T16:06:46.854Z,44.17
2018-07-06T16:09:17.120Z,44.00
2018-07-06T16:11:46.987Z,44.79
2018-07-06T16:14:16.891Z,44.90
2018-07-06T16:16:46.501Z,45.02
2018-07-06T16:19:16.286Z,45.49
2018-07-06T16:21:46.119Z,45.36
2018-07-06T16:24:15.872Z,46.34
2018-07-06T16:26:45.707Z,45.63
2018-07-06T16:29:15.493Z,47.01
2018-07-06T16:31:45.334Z,50.89
2018-07-06T16:34:15.206Z,56.98
2018-07-06T16:36:45.050Z,57.98
2018-07-06T16:39:14.939Z,60.65
2018-07-06T16:41:44.728Z,61.59
2018-07-06T16:44:14.569Z,63.19
2018-07-06T16:46:44.360Z,59.57
2018-07-06T16:49:14.198Z,61.37
2018-07-06T16:51:43.939Z,63.72
2018-07-06T16:54:13.754Z,64.82
2018-07-06T16:56:43.642Z,66.32
2018-07-06T16:59:13.564Z,69.30
2018-07-06T17:01:43.415Z,70.10
2018-07-06T17:04:13.287Z,66.33
2018-07-06T17:06:43.170Z,70.27
2018-07-06T17:09:13.086Z,66.00
2018-07-06T17:11:42.926Z,65.31
2018-07-06T17:14:12.750Z,66.46
2018-07-06T17:16:42.499Z,67.91
2018-07-06T17:19:12.245Z,69.08
2018-07-06T17:21:42.072Z,69.52
2018-07-06T17:24:12.014Z,69.45
2018-07-06T17:26:41.798Z,66.71
2018-07-06T17:29:11.681Z,68.95
2018-07-06T17:31:41.656Z,68.20
2018-07-06T17:34:11.551Z,69.18
2018-07-06T17:36:41.390Z,68.19
2018-07-06T17:39:11.470Z,68.57
2018-07-06T17:41:41.271Z,66.27
2018-07-06T17:44:11.200Z,68.03
2018-07-06T17:46:41.159Z,69.28
2018-07-06T17:49:11.032Z,68.52
2018-07-06T17:51:40.856Z,67.04
2018-07-06T17:54:10.715Z,68.23
2018-07-06T17:56:40.468Z,65.56
2018-07-06T17:59:10.315Z,66.97
2018-07-06T18:01:40.308Z,65.27
2018-07-06T18:04:10.115Z,63.17
2018-07-06T18:06:39.978Z,64.57
2018-07-06T18:09:09.836Z,63.57
2018-07-06T18:11:39.699Z,62.68
2018-07-06T18:14:09.591Z,64.55
2018-07-06T18:16:39.489Z,63.05
2018-07-06T18:19:09.352Z,62.11
2018-07-06T18:21:39.663Z,63.35
2018-07-06T18:24:09.603Z,63.17
2018-07-06T18:26:39.422Z,66.71
2018-07-06T18:29:09.160Z,67.81
2018-07-06T18:31:39.046Z,70.68
2018-07-06T18:34:08.868Z,66.43
2018-07-06T18:36:38.794Z,64.99
2018-07-06T18:39:08.716Z,64.88
2018-07-06T18:41:38.476Z,68.28
2018-07-06T18:44:08.283Z,66.53
2018-07-06T18:46:38.099Z,65.07
2018-07-06T18:49:07.897Z,64.21
2018-07-06T18:51:37.709Z,68.65
2018-07-06T18:54:07.496Z,68.56
2018-07-06T18:56:38.044Z,68.81
2018-07-06T18:59:08.020Z,71.52
2018-07-06T19:01:37.864Z,71.69
2018-07-06T19:04:08.041Z,69.14
2018-07-06T19:06:38.692Z,67.42
2018-07-06T19:09:08.749Z,70.60
2018-07-06T19:11:38.656Z,67.51
2018-07-06T19:14:08.638Z,66.72
2018-07-06T19:16:38.635Z,65.29
2018-07-06T19:19:08.279Z,65.54
2018-07-06T19:21:37.938Z,64.54
2018-07-06T19:24:07.765Z,64.08
2018-07-06T19:26:37.623Z,64.11
2018-07-06T19:29:07.600Z,63.90
2018-07-06T19:31:37.509Z,64.12
2018-07-06T19:34:07.309Z,64.91
2018-07-06T19:36:37.081Z,66.20
2018-07-06T19:39:07.332Z,67.17
2018-07-06T19:41:37.298Z,68.18
2018-07-06T19:44:07.116Z,72.49
2018-07-06T19:46:36.953Z,73.62
2018-07-06T19:49:06.796Z,73.79
2018-07-06T19:51:36.822Z,69.85
2018-07-06T19:54:06.933Z,68.69
2018-07-06T19:56:36.799Z,67.58
2018-07-06T19:59:08.789Z,66.50
2018-07-06T20:01:38.682Z,70.83
2018-07-06T20:04:08.756Z,72.07
2018-07-06T20:06:39.847Z,69.85
2018-07-06T20:09:09.650Z,68.83
2018-07-06T20:11:40.225Z,70.35
2018-07-06T20:14:10.113Z,70.77
2018-07-06T20:16:41.179Z,73.28
2018-07-06T20:19:11.055Z,73.83
2018-07-06T20:21:41.052Z,73.41
2018-07-06T20:24:41.740Z,74.35
2018-07-06T20:27:11.858Z,73.94
2018-07-06T20:29:41.663Z,72.42
2018-07-06T20:32:11.433Z,74.00
2018-07-06T20:34:41.229Z,73.15
2018-07-06T20:37:11.046Z,71.56
2018-07-06T20:39:40.981Z,69.31
2018-07-06T20:42:10.825Z,68.37
2018-07-06T20:44:42.813Z,68.99
2018-07-06T20:47:12.669Z,71.30
2018-07-06T20:49:42.385Z,72.77
2018-07-06T20:52:12.340Z,71.51
2018-07-06T20:54:43.137Z,71.46
2018-07-06T20:57:13.098Z,71.68
2018-07-06T20:59:43.020Z,69.58
2018-07-06T21:02:12.848Z,71.38
2018-07-06T21:04:43.811Z,72.92
2018-07-06T21:07:13.621Z,73.20
2018-07-06T21:09:43.483Z,74.07
2018-07-06T21:12:13.223Z,72.76
2018-07-06T21:14:44.086Z,70.27
2018-07-06T21:17:14.339Z,68.76
2018-07-06T21:19:44.162Z,67.47
2018-07-06T21:22:13.975Z,68.70
2018-07-06T21:24:44.560Z,67.98
2018-07-06T21:27:14.268Z,68.43
2018-07-06T21:29:44.039Z,67.78
2018-07-06T21:32:13.908Z,68.80
2018-07-06T21:34:43.744Z,70.76
2018-07-06T21:37:13.631Z,71.24
2018-07-06T21:39:43.500Z,71.76
2018-07-06T21:42:13.278Z,71.30
2018-07-06T21:44:43.054Z,70.33
2018-07-06T21:47:12.828Z,68.64
2018-07-06T21:49:42.574Z,67.88
2018-07-06T21:52:12.273Z,70.22
2018-07-06T21:54:42.211Z,71.54
2018-07-06T21:57:11.993Z,70.93
2018-07-06T21:59:41.826Z,70.95
2018-07-06T22:02:15.551Z,68.41
2018-07-06T22:04:47.187Z,67.53
2018-07-06T22:07:17.531Z,66.93
2018-07-06T22:09:47.234Z,66.23
2018-07-06T22:12:17.180Z,65.71
2018-07-06T22:14:47.774Z,65.76
2018-07-06T22:17:17.778Z,65.31
2018-07-06T22:19:47.625Z,65.60
2018-07-06T22:22:17.525Z,66.32
2018-07-06T22:24:47.997Z,68.12
2018-07-06T22:27:17.841Z,68.42
2018-07-06T22:29:47.569Z,68.34
2018-07-06T22:32:17.346Z,71.36
2018-07-06T22:34:47.228Z,74.14
2018-07-06T22:37:16.883Z,74.99
2018-07-06T22:39:46.658Z,72.13
2018-07-06T22:42:16.507Z,73.48
2018-07-06T22:44:46.332Z,71.88
2018-07-06T22:47:16.247Z,69.63
2018-07-06T22:49:46.252Z,69.41
2018-07-06T22:52:16.090Z,70.38
2018-07-06T22:54:46.009Z,69.59
2018-07-06T22:57:15.839Z,67.50
2018-07-06T22:59:45.638Z,69.41
2018-07-06T23:02:15.569Z,71.95
2018-07-06T23:04:45.539Z,73.06
2018-07-06T23:07:15.442Z,71.60
2018-07-06T23:09:45.210Z,69.51
2018-07-06T23:12:15.326Z,67.79
2018-07-06T23:14:45.262Z,67.24
2018-07-06T23:17:15.042Z,67.44
2018-07-06T23:19:45.004Z,69.59
2018-07-06T23:22:19.058Z,69.79
2018-07-06T23:24:48.766Z,67.49
2018-07-06T23:27:18.440Z,67.04
2018-07-06T23:29:48.265Z,69.34
2018-07-06T23:32:18.210Z,69.85
2018-07-06T23:34:48.033Z,70.30
2018-07-06T23:37:17.879Z,68.91
2018-07-06T23:39:47.698Z,69.04
2018-07-06T23:42:17.397Z,68.88
2018-07-06T23:44:47.071Z,68.80
2018-07-06T23:47:16.986Z,68.24
2018-07-06T23:49:46.853Z,69.14
2018-07-06T23:52:16.584Z,72.30
2018-07-06T23:54:46.304Z,73.33
2018-07-06T23:57:16.051Z,70.20
2018-07-06T23:59:45.727Z,72.93
